Time;durP1;ratioP1;P1;durP2;ratioP2;P2;SDS_P1;SDS_P2;PMS_P1;PMS_P2;Temp;Humidity;BMP_temperature;BMP_pressure;BME280_temperature;BME280_humidity;BME280_pressure;Samples;Min_cycle;Max_cycle;Signal;HPM_P1;HPM_P2
2022/08/05 00:00:05;;;;;;;2.80;0.70;;;24.10;86.20;;;;;;5052999;28;20431;-76
2022/08/05 00:02:31;;;;;;;2.45;0.90;;;24.00;86.40;;;;;;5052874;28;20036;-77
2022/08/05 00:04:56;;;;;;;2.72;0.60;;;23.80;87.30;;;;;;5052546;28;20123;-77
2022/08/05 00:07:23;;;;;;;2.55;0.68;;;23.70;86.90;;;;;;5053103;28;20031;-77
2022/08/05 00:09:48;;;;;;;2.42;1.00;;;23.80;86.90;;;;;;5052971;28;20029;-77
2022/08/05 00:12:14;;;;;;;3.55;0.77;;;23.70;87.00;;;;;;5052972;28;20478;-77
2022/08/05 00:14:40;;;;;;;4.22;0.93;;;23.60;87.20;;;;;;5052884;28;20067;-77
2022/08/05 00:17:05;;;;;;;3.92;1.05;;;23.60;87.40;;;;;;5052563;28;20024;-77
2022/08/05 00:19:31;;;;;;;4.30;1.10;;;23.50;87.70;;;;;;5052963;28;20060;-77
2022/08/05 00:21:56;;;;;;;2.38;0.93;;;23.30;88.00;;;;;;5053303;28;20075;-77
2022/08/05 00:24:22;;;;;;;2.10;0.63;;;23.20;88.90;;;;;;5056549;28;20123;-77
2022/08/05 00:26:48;;;;;;;3.35;1.00;;;23.20;88.40;;;;;;5056428;28;20100;-77
2022/08/05 00:29:13;;;;;;;3.92;1.50;;;23.40;88.40;;;;;;5056712;28;20354;-77
2022/08/05 00:31:39;;;;;;;2.53;0.90;;;23.30;88.10;;;;;;5056291;28;20025;-77
2022/08/05 00:34:04;;;;;;;5.13;1.67;;;23.30;88.00;;;;;;5056554;28;20155;-77
2022/08/05 00:36:30;;;;;;;5.65;1.20;;;23.20;88.40;;;;;;5055991;28;20029;-77
2022/08/05 00:38:56;;;;;;;3.15;1.20;;;23.00;89.20;;;;;;5056377;28;20029;-77
2022/08/05 00:41:32;;;;;;;5.38;1.60;;;22.90;89.60;;;;;;5056335;28;20380;-77
2022/08/05 00:43:58;;;;;;;5.25;1.33;;;22.80;90.00;;;;;;5055980;28;20047;-77
2022/08/05 00:46:24;;;;;;;2.42;0.70;;;22.90;90.00;;;;;;5056073;28;20103;-78
2022/08/05 00:48:50;;;;;;;3.63;0.70;;;23.00;89.70;;;;;;5055991;28;20513;-77
2022/08/05 00:51:17;;;;;;;5.68;1.48;;;23.00;89.40;;;;;;5056218;28;20025;-77
2022/08/05 00:53:42;;;;;;;4.63;0.82;;;23.10;88.80;;;;;;5056247;28;20096;-77
2022/08/05 00:56:08;;;;;;;4.57;1.38;;;23.10;88.60;;;;;;5056109;28;20164;-77
2022/08/05 00:58:34;;;;;;;2.28;0.85;;;23.10;88.40;;;;;;5055864;28;20033;-77
2022/08/05 01:01:00;;;;;;;5.28;1.58;;;23.10;88.40;;;;;;5055878;28;20068;-77
2022/08/05 01:03:26;;;;;;;5.68;1.20;;;23.10;88.60;;;;;;5055826;28;20056;-77
2022/08/05 01:05:52;;;;;;;4.90;1.10;;;23.00;88.80;;;;;;5055974;28;20498;-76
2022/08/05 01:08:18;;;;;;;4.60;1.48;;;23.00;89.00;;;;;;5055587;28;20028;-76
2022/08/05 01:10:47;;;;;;;4.53;1.08;;;23.00;89.00;;;;;;5055821;28;20180;-77
2022/08/05 01:13:30;;;;;;;6.15;1.17;;;23.10;88.90;;;;;;5055743;28;20061;-76
2022/08/05 01:16:01;;;;;;;2.35;0.90;;;23.00;88.70;;;;;;5055527;28;20025;-76
2022/08/05 01:18:33;;;;;;;3.22;0.85;;;23.00;88.70;;;;;;5055734;28;20025;-76
2022/08/05 01:21:26;;;;;;;2.70;0.80;;;23.10;88.60;;;;;;5055283;28;20032;-77
2022/08/05 01:24:13;;;;;;;7.43;1.20;;;23.10;88.60;;;;;;5055123;28;20052;-77
2022/08/05 01:26:57;;;;;;;4.25;1.08;;;23.20;88.40;;;;;;5055363;28;20041;-76
2022/08/05 01:29:35;;;;;;;5.00;1.30;;;23.20;88.40;;;;;;5055595;28;20063;-76
2022/08/05 01:32:05;;;;;;;4.88;1.38;;;23.20;88.40;;;;;;5055358;28;20033;-76
2022/08/05 01:34:38;;;;;;;6.57;1.50;;;23.00;88.70;;;;;;5054538;28;20118;-77
2022/08/05 01:37:27;;;;;;;3.20;1.30;;;22.90;88.80;;;;;;5055250;28;20025;-76
2022/08/05 01:39:55;;;;;;;3.85;1.02;;;22.80;89.10;;;;;;5050847;28;20112;-77
2022/08/05 01:42:22;;;;;;;2.75;1.00;;;22.90;89.30;;;;;;5055379;28;20029;-76
2022/08/05 01:44:49;;;;;;;3.47;0.80;;;23.00;89.20;;;;;;5054682;28;20037;-76
2022/08/05 01:47:18;;;;;;;5.20;1.40;;;23.00;89.60;;;;;;5055175;28;20040;-77
2022/08/05 01:49:46;;;;;;;3.53;1.10;;;23.00;88.80;;;;;;5054835;28;20025;-77
2022/08/05 01:52:14;;;;;;;2.40;0.80;;;23.10;88.60;;;;;;5054904;28;20036;-77
2022/08/05 01:54:45;;;;;;;4.22;0.60;;;23.10;88.50;;;;;;5054963;28;20036;-76
2022/08/05 01:57:12;;;;;;;5.00;1.10;;;23.20;88.30;;;;;;5054554;28;20021;-77
2022/08/05 01:59:40;;;;;;;2.70;0.98;;;23.30;88.10;;;;;;5054618;28;20024;-77
2022/08/05 02:02:07;;;;;;;4.35;1.30;;;23.40;87.80;;;;;;5054609;28;20389;-76
2022/08/05 02:04:37;;;;;;;5.10;1.10;;;23.50;87.50;;;;;;5054247;28;20499;-76
2022/08/05 02:07:03;;;;;;;5.00;1.00;;;23.60;87.30;;;;;;5054833;28;20025;-76
2022/08/05 02:09:29;;;;;;;3.35;1.00;;;23.60;87.20;;;;;;5054478;28;20025;-76
2022/08/05 02:12:00;;;;;;;4.53;0.95;;;23.60;86.90;;;;;;5054539;28;20064;-76
2022/08/05 02:14:52;;;;;;;2.50;0.80;;;23.70;86.70;;;;;;5054350;28;20107;-76
2022/08/05 02:17:40;;;;;;;1.70;0.60;;;23.70;86.70;;;;;;5054360;28;20030;-77
2022/08/05 02:20:11;;;;;;;4.50;0.90;;;23.70;86.50;;;;;;5054374;28;20049;-77
2022/08/05 02:22:43;;;;;;;2.97;0.65;;;23.80;86.40;;;;;;5054148;28;20116;-77
2022/08/05 02:25:18;;;;;;;5.63;1.35;;;23.80;86.30;;;;;;5054017;28;20049;-77
2022/08/05 02:27:47;;;;;;;3.00;1.08;;;23.70;86.30;;;;;;5054433;28;20033;-77
2022/08/05 02:30:14;;;;;;;3.05;1.20;;;23.70;86.40;;;;;;5053869;28;20028;-76
2022/08/05 02:32:42;;;;;;;6.70;1.55;;;23.60;86.40;;;;;;5053932;28;20031;-77
2022/08/05 02:35:12;;;;;;;4.07;1.13;;;23.60;86.50;;;;;;5053845;28;20027;-76
2022/08/05 02:37:40;;;;;;;4.93;1.10;;;23.60;86.50;;;;;;5053965;28;20468;-77
2022/08/05 02:40:08;;;;;;;2.85;0.80;;;23.70;86.40;;;;;;5054143;28;20025;-77
2022/08/05 02:42:34;;;;;;;3.88;0.68;;;23.70;86.40;;;;;;5053943;28;20119;-76
2022/08/05 02:45:01;;;;;;;3.53;1.20;;;23.70;86.20;;;;;;5053042;28;20527;-76
2022/08/05 02:47:29;;;;;;;5.30;1.90;;;23.80;86.20;;;;;;5054023;28;20112;-76
2022/08/05 02:49:55;;;;;;;6.97;1.30;;;23.70;86.00;;;;;;5054021;28;20056;-76
2022/08/05 02:52:22;;;;;;;4.10;1.20;;;23.60;86.20;;;;;;5053997;28;20049;-76
2022/08/05 02:54:48;;;;;;;5.25;1.25;;;23.50;86.20;;;;;;5053976;28;20025;-76
2022/08/05 02:57:17;;;;;;;6.13;1.23;;;23.50;86.30;;;;;;5053664;28;20056;-76
2022/08/05 02:59:46;;;;;;;3.38;1.05;;;23.40;86.50;;;;;;5053901;28;20025;-76
2022/08/05 03:02:14;;;;;;;3.10;0.80;;;23.40;86.90;;;;;;5053437;28;20028;-77
2022/08/05 03:04:41;;;;;;;3.80;1.05;;;23.40;86.90;;;;;;5053717;28;20044;-76
2022/08/05 03:07:08;;;;;;;2.88;1.13;;;23.40;86.80;;;;;;5053668;28;20112;-77
2022/08/05 03:09:34;;;;;;;3.95;1.10;;;23.50;86.70;;;;;;5053465;28;20025;-76
2022/08/05 03:12:00;;;;;;;2.58;1.00;;;23.50;86.60;;;;;;5053367;28;20029;-76
2022/08/05 03:14:26;;;;;;;4.72;1.30;;;23.50;86.50;;;;;;5053434;28;20029;-76
2022/08/05 03:16:51;;;;;;;2.83;0.85;;;23.50;86.50;;;;;;5053286;28;20021;-76
2022/08/05 03:19:17;;;;;;;2.00;0.73;;;23.50;86.70;;;;;;5053664;28;20104;-77
2022/08/05 03:21:43;;;;;;;2.60;0.70;;;23.50;86.70;;;;;;5053188;28;20071;-76
2022/08/05 03:24:09;;;;;;;2.53;0.63;;;23.50;86.70;;;;;;5053123;28;20134;-76
2022/08/05 03:26:35;;;;;;;5.30;1.13;;;23.60;86.70;;;;;;5053253;28;20045;-77
2022/08/05 03:29:01;;;;;;;3.00;0.90;;;23.50;86.70;;;;;;5053415;28;20032;-77
2022/08/05 03:31:28;;;;;;;4.32;0.90;;;23.50;86.80;;;;;;5053125;28;20021;-76
2022/08/05 03:33:54;;;;;;;3.13;1.00;;;23.50;86.70;;;;;;5053065;28;20025;-77
2022/08/05 03:36:19;;;;;;;3.00;0.70;;;23.50;86.70;;;;;;5053436;28;20029;-77
2022/08/05 03:38:45;;;;;;;3.25;1.20;;;23.60;86.70;;;;;;5052971;28;20029;-76
2022/08/05 03:41:10;;;;;;;4.32;1.58;;;23.50;86.60;;;;;;5053188;28;20037;-76
2022/08/05 03:43:36;;;;;;;3.55;1.30;;;23.50;86.70;;;;;;5052999;28;20037;-76
2022/08/05 03:46:03;;;;;;;3.28;1.40;;;23.30;87.00;;;;;;5052989;28;20025;-77
2022/08/05 03:48:30;;;;;;;3.83;0.95;;;23.20;87.20;;;;;;5053213;28;20104;-76
2022/08/05 03:51:26;;;;;;;2.63;1.13;;;23.20;87.30;;;;;;5053185;28;20033;-76
2022/08/05 03:54:18;;;;;;;3.17;0.70;;;23.30;87.30;;;;;;5052989;28;20029;-77
2022/08/05 03:56:45;;;;;;;4.33;1.10;;;23.40;87.20;;;;;;5055021;28;20021;-76
2022/08/05 03:59:20;;;;;;;3.35;0.95;;;23.40;87.00;;;;;;5057220;28;20035;-77
2022/08/05 04:01:48;;;;;;;6.10;1.10;;;23.40;86.90;;;;;;5057178;28;20020;-78
2022/08/05 04:04:14;;;;;;;4.10;1.33;;;23.40;87.00;;;;;;5056788;28;20037;-77
2022/08/05 04:06:41;;;;;;;4.20;1.17;;;23.40;87.10;;;;;;5056801;28;20456;-77
2022/08/05 04:09:07;;;;;;;3.47;1.05;;;23.40;87.10;;;;;;5056839;28;20028;-77
2022/08/05 04:11:36;;;;;;;2.67;0.60;;;23.40;87.10;;;;;;5057078;28;20021;-77
2022/08/05 04:14:03;;;;;;;4.10;0.90;;;23.50;87.10;;;;;;5056993;28;20025;-76
2022/08/05 04:16:31;;;;;;;5.55;0.63;;;23.40;87.00;;;;;;5056755;28;20051;-76
2022/08/05 04:18:56;;;;;;;4.75;1.30;;;23.40;87.10;;;;;;5056843;28;20031;-77
2022/08/05 04:21:22;;;;;;;3.10;1.13;;;23.40;87.10;;;;;;5056788;28;20025;-77
2022/08/05 04:23:48;;;;;;;5.18;1.10;;;23.30;87.30;;;;;;5056145;28;20048;-76
2022/08/05 04:26:14;;;;;;;3.72;0.70;;;23.20;87.50;;;;;;5056552;28;20025;-76
2022/08/05 04:28:40;;;;;;;6.28;1.60;;;23.20;87.70;;;;;;5056410;28;20075;-76
2022/08/05 04:31:06;;;;;;;4.38;1.33;;;23.10;87.80;;;;;;5056482;28;20554;-76
2022/08/05 04:33:31;;;;;;;4.78;1.30;;;23.00;88.10;;;;;;5056194;28;20485;-76
2022/08/05 04:35:57;;;;;;;5.88;1.65;;;23.00;88.40;;;;;;5055946;28;20032;-76
2022/08/05 04:38:23;;;;;;;3.13;1.10;;;22.90;88.90;;;;;;5055985;28;20032;-76
2022/08/05 04:40:48;;;;;;;3.53;1.00;;;22.70;89.20;;;;;;5056318;28;20025;-76
2022/08/05 04:43:14;;;;;;;3.47;0.90;;;22.70;89.20;;;;;;5056098;28;20029;-76
2022/08/05 04:45:39;;;;;;;3.70;0.95;;;22.80;89.30;;;;;;5055608;28;20435;-76
2022/08/05 04:48:10;;;;;;;2.38;1.02;;;22.90;89.20;;;;;;5055802;28;20116;-76
2022/08/05 04:50:47;;;;;;;3.97;0.80;;;22.90;89.10;;;;;;5055679;28;20087;-76
2022/08/05 04:53:15;;;;;;;6.85;1.20;;;22.90;89.50;;;;;;5056085;28;20025;-77
2022/08/05 04:55:42;;;;;;;5.22;1.10;;;22.90;89.10;;;;;;5055397;28;20059;-76
2022/08/05 04:58:10;;;;;;;1.58;0.50;;;22.90;89.00;;;;;;5055961;28;20116;-76
2022/08/05 05:00:37;;;;;;;4.07;1.10;;;23.00;88.90;;;;;;5055599;28;20035;-76
2022/08/05 05:03:04;;;;;;;5.60;1.63;;;23.00;88.90;;;;;;5055798;28;20025;-76
2022/08/05 05:05:30;;;;;;;3.85;1.00;;;22.80;89.20;;;;;;5055456;28;20040;-76
2022/08/05 05:08:01;;;;;;;4.80;0.95;;;22.80;89.50;;;;;;5054464;28;20059;-76
2022/08/05 05:10:27;;;;;;;2.45;0.90;;;22.70;90.10;;;;;;5055663;28;20059;-76
2022/08/05 05:12:53;;;;;;;3.95;0.90;;;22.70;89.90;;;;;;5055778;28;20053;-76
2022/08/05 05:15:18;;;;;;;4.10;1.00;;;22.70;89.80;;;;;;5055219;28;20048;-77
2022/08/05 05:17:44;;;;;;;3.92;1.00;;;22.70;89.80;;;;;;5055262;28;20227;-77
2022/08/05 05:20:11;;;;;;;5.78;1.13;;;22.70;89.90;;;;;;5055446;28;20025;-76
2022/08/05 05:22:37;;;;;;;4.20;1.35;;;22.70;90.00;;;;;;5055618;28;20383;-77
2022/08/05 05:25:03;;;;;;;6.47;0.98;;;22.60;90.10;;;;;;5054950;28;20048;-77
2022/08/05 05:27:31;;;;;;;6.97;1.50;;;22.60;90.20;;;;;;5055570;28;20419;-77
2022/08/05 05:29:57;;;;;;;4.57;1.17;;;22.50;90.20;;;;;;5055299;28;20039;-77
2022/08/05 05:32:23;;;;;;;3.85;1.00;;;22.50;90.30;;;;;;5055110;28;20530;-77
2022/08/05 05:34:49;;;;;;;5.78;0.95;;;22.50;90.30;;;;;;5055526;28;20056;-77
2022/08/05 05:37:15;;;;;;;5.20;1.13;;;22.60;90.30;;;;;;5055038;28;20495;-77
2022/08/05 05:39:40;;;;;;;4.85;1.30;;;22.60;90.20;;;;;;5054996;28;20033;-76
2022/08/05 05:42:06;;;;;;;4.82;1.00;;;22.60;90.20;;;;;;5055060;28;20546;-76
2022/08/05 05:44:32;;;;;;;6.53;1.00;;;22.70;90.10;;;;;;5055197;28;20044;-76
2022/08/05 05:46:58;;;;;;;4.90;1.55;;;22.70;90.10;;;;;;5055002;28;20100;-76
2022/08/05 05:49:25;;;;;;;6.70;1.27;;;22.60;90.10;;;;;;5054987;28;20108;-76
2022/08/05 05:51:51;;;;;;;6.03;1.20;;;22.50;90.10;;;;;;5055050;28;20075;-77
2022/08/05 05:54:16;;;;;;;2.75;0.95;;;22.50;90.30;;;;;;5054781;28;20446;-76
2022/08/05 05:56:42;;;;;;;3.47;0.73;;;22.40;90.40;;;;;;5054989;28;20071;-76
2022/08/05 05:59:07;;;;;;;5.68;0.90;;;22.40;90.40;;;;;;5054687;28;20468;-76
2022/08/05 06:01:35;;;;;;;4.63;1.00;;;22.50;90.40;;;;;;5054690;28;20094;-76
2022/08/05 06:04:01;;;;;;;4.43;0.82;;;22.40;90.30;;;;;;5054813;28;20025;-77
2022/08/05 06:06:27;;;;;;;2.63;0.80;;;22.40;90.30;;;;;;5054848;28;20025;-77
2022/08/05 06:08:52;;;;;;;4.03;0.77;;;22.50;90.40;;;;;;5054460;28;20044;-77
2022/08/05 06:11:18;;;;;;;2.88;0.90;;;22.50;90.30;;;;;;5054367;28;20469;-77
2022/08/05 06:13:43;;;;;;;3.60;1.10;;;22.50;90.40;;;;;;5054322;28;20043;-77
2022/08/05 06:16:09;;;;;;;4.20;0.70;;;22.50;90.40;;;;;;5054525;28;20025;-77
2022/08/05 06:18:36;;;;;;;3.47;0.85;;;22.60;90.30;;;;;;5054350;28;20476;-77
2022/08/05 06:21:02;;;;;;;3.97;0.73;;;22.60;90.40;;;;;;5054423;28;20031;-77
2022/08/05 06:23:28;;;;;;;5.22;1.17;;;22.60;90.40;;;;;;5053868;28;20044;-77
2022/08/05 06:25:54;;;;;;;4.20;1.00;;;22.60;90.40;;;;;;5054293;28;20044;-77
2022/08/05 06:28:19;;;;;;;4.43;0.82;;;22.50;90.40;;;;;;5054437;28;20029;-77
2022/08/05 06:30:45;;;;;;;5.30;0.93;;;22.40;90.40;;;;;;5053786;28;20116;-77
2022/08/05 06:33:10;;;;;;;5.15;0.70;;;22.40;90.50;;;;;;5054237;28;20025;-77
2022/08/05 06:35:36;;;;;;;3.97;2.33;;;22.40;90.40;;;;;;5054303;28;20025;-77
2022/08/05 06:38:02;;;;;;;4.20;1.30;;;22.50;90.30;;;;;;5054092;28;20380;-77
2022/08/05 06:40:27;;;;;;;6.20;1.17;;;22.60;90.20;;;;;;5053690;28;20067;-77
2022/08/05 06:42:53;;;;;;;4.22;0.85;;;22.50;90.10;;;;;;5054232;28;20489;-77
2022/08/05 06:45:20;;;;;;;3.67;0.80;;;22.50;90.20;;;;;;5053696;28;20037;-76
2022/08/05 06:47:46;;;;;;;3.30;0.70;;;22.40;90.60;;;;;;5053991;28;20025;-77
2022/08/05 06:50:11;;;;;;;2.30;0.85;;;22.50;90.30;;;;;;5053936;28;20492;-77
2022/08/05 06:52:37;;;;;;;3.22;0.63;;;22.40;90.30;;;;;;5053753;28;20094;-77
2022/08/05 06:55:03;;;;;;;5.10;0.75;;;22.40;90.20;;;;;;5053424;28;20040;-77
2022/08/05 06:57:29;;;;;;;4.10;0.90;;;22.40;90.00;;;;;;5053530;28;20024;-77
2022/08/05 06:59:54;;;;;;;3.13;0.82;;;22.30;90.20;;;;;;5053904;28;20028;-77
2022/08/05 07:02:20;;;;;;;6.72;1.23;;;22.30;90.40;;;;;;5053472;28;20021;-77
2022/08/05 07:04:45;;;;;;;4.88;0.63;;;22.20;90.40;;;;;;5053177;28;20033;-77
2022/08/05 07:07:11;;;;;;;5.00;0.70;;;22.20;90.40;;;;;;5053433;28;20582;-77
2022/08/05 07:09:36;;;;;;;7.68;0.95;;;22.20;90.40;;;;;;5053122;28;20025;-77
2022/08/05 07:12:02;;;;;;;5.82;0.88;;;22.00;90.60;;;;;;5053404;28;20025;-77
2022/08/05 07:17:16;;;;;;;3.78;0.80;;;22.10;90.60;;;;;;5061485;28;20470;-77
2022/08/05 07:19:42;;;;;;;2.58;0.60;;;21.90;90.60;;;;;;5053587;28;20111;-77
2022/08/05 07:22:07;;;;;;;4.97;0.70;;;21.90;90.80;;;;;;5053588;28;20050;-77
2022/08/05 07:24:33;;;;;;;3.53;0.65;;;21.90;90.90;;;;;;5052849;28;20045;-77
2022/08/05 07:26:58;;;;;;;4.30;0.80;;;22.00;90.80;;;;;;5053371;28;20112;-77
2022/08/05 07:29:24;;;;;;;5.35;0.77;;;22.00;90.70;;;;;;5053243;28;20048;-77
2022/08/05 07:31:50;;;;;;;3.05;0.65;;;22.10;90.40;;;;;;5052896;28;20067;-77
2022/08/05 07:34:15;;;;;;;4.93;0.88;;;22.10;90.20;;;;;;5053127;28;20464;-77
2022/08/05 07:36:41;;;;;;;6.72;0.52;;;22.20;90.10;;;;;;5053029;28;20071;-77
2022/08/05 07:39:08;;;;;;;3.72;0.50;;;22.30;90.10;;;;;;5053247;28;20029;-77
2022/08/05 07:41:34;;;;;;;5.40;0.68;;;22.40;89.40;;;;;;5052757;28;20423;-77
2022/08/05 07:44:01;;;;;;;4.43;0.50;;;22.40;89.20;;;;;;5053087;28;20114;-77
2022/08/05 07:46:29;;;;;;;4.43;0.55;;;22.40;89.50;;;;;;5052928;28;20543;-77
2022/08/05 07:48:56;;;;;;;3.13;0.60;;;22.50;89.20;;;;;;5053174;28;20047;-77
2022/08/05 07:51:22;;;;;;;5.68;1.00;;;22.50;88.60;;;;;;5052789;28;20415;-77
2022/08/05 07:53:48;;;;;;;2.50;0.50;;;22.50;88.60;;;;;;5053199;28;20078;-77
2022/08/05 07:56:14;;;;;;;4.88;0.60;;;22.60;88.20;;;;;;5052645;28;20102;-77
2022/08/05 07:58:39;;;;;;;3.70;0.60;;;22.70;88.00;;;;;;5053016;28;20030;-77
2022/08/05 08:01:05;;;;;;;5.25;0.80;;;22.60;88.60;;;;;;5053084;28;20033;-77
2022/08/05 08:03:31;;;;;;;4.72;0.77;;;22.50;87.10;;;;;;5052894;28;20457;-77
2022/08/05 08:05:56;;;;;;;2.45;0.65;;;22.50;87.30;;;;;;5052761;28;20048;-77
2022/08/05 08:08:22;;;;;;;4.63;0.60;;;22.60;87.50;;;;;;5052803;28;20376;-77
2022/08/05 08:10:48;;;;;;;2.17;0.40;;;22.60;85.70;;;;;;5052985;28;20025;-77
2022/08/05 08:13:14;;;;;;;4.03;0.30;;;22.70;85.90;;;;;;5052723;28;20376;-78
2022/08/05 08:15:39;;;;;;;1.55;0.20;;;22.90;84.30;;;;;;5053050;28;20021;-78
2022/08/05 08:18:05;;;;;;;4.03;0.40;;;22.90;81.70;;;;;;5052791;28;20033;-78
2022/08/05 08:20:30;;;;;;;6.40;0.63;;;22.80;82.10;;;;;;5052591;28;20017;-78
2022/08/05 08:22:58;;;;;;;3.08;0.60;;;22.80;82.00;;;;;;5052755;28;20460;-78
2022/08/05 08:25:27;;;;;;;2.97;0.50;;;22.80;82.10;;;;;;5052369;28;20068;-78
2022/08/05 08:27:53;;;;;;;3.20;0.40;;;22.80;81.40;;;;;;5052838;28;20087;-78
2022/08/05 08:30:18;;;;;;;3.83;0.32;;;22.70;81.70;;;;;;5052618;28;20021;-78
2022/08/05 08:32:44;;;;;;;5.95;0.30;;;22.70;82.30;;;;;;5052374;28;20037;-78
2022/08/05 08:35:10;;;;;;;2.65;0.40;;;22.70;81.40;;;;;;5052638;28;20040;-78
2022/08/05 08:37:36;;;;;;;2.35;0.28;;;22.80;81.70;;;;;;5052707;28;20047;-77
2022/08/05 08:40:02;;;;;;;2.92;0.40;;;22.90;81.80;;;;;;5052495;28;20032;-76
2022/08/05 08:42:29;;;;;;;2.20;0.30;;;22.90;81.90;;;;;;5052719;28;20082;-77
2022/08/05 08:44:56;;;;;;;2.10;0.30;;;23.00;82.50;;;;;;5055793;28;20033;-77
2022/08/05 08:47:24;;;;;;;2.58;0.40;;;23.00;81.60;;;;;;5056096;28;20086;-77
2022/08/05 08:49:55;;;;;;;3.13;0.40;;;23.10;81.80;;;;;;5056146;28;20032;-76
2022/08/05 08:52:28;;;;;;;2.15;0.50;;;23.10;80.70;;;;;;5055927;28;20495;-77
2022/08/05 08:54:54;;;;;;;1.33;0.25;;;22.90;80.40;;;;;;5055736;28;20495;-77
2022/08/05 08:57:21;;;;;;;4.07;0.30;;;22.90;80.70;;;;;;5055986;28;20033;-77
2022/08/05 08:59:48;;;;;;;1.00;0.17;;;22.90;80.80;;;;;;5056002;28;20028;-76
2022/08/05 09:02:14;;;;;;;3.53;0.20;;;22.80;79.90;;;;;;5055642;28;20029;-77
2022/08/05 09:04:39;;;;;;;3.55;0.45;;;22.80;80.40;;;;;;5055828;28;20033;-77
2022/08/05 09:07:08;;;;;;;1.92;0.20;;;22.90;80.40;;;;;;5055589;28;20048;-77
2022/08/05 09:09:35;;;;;;;1.27;0.20;;;23.00;79.60;;;;;;5055860;28;20439;-78
2022/08/05 09:12:06;;;;;;;2.75;0.40;;;23.10;79.70;;;;;;5055362;28;20468;-77
2022/08/05 09:14:33;;;;;;;1.75;0.20;;;23.20;78.80;;;;;;5055632;28;20036;-76
2022/08/05 09:16:59;;;;;;;2.28;0.20;;;23.20;78.00;;;;;;5055680;28;20029;-76
2022/08/05 09:19:25;;;;;;;1.33;0.20;;;23.20;76.90;;;;;;5055425;28;20033;-77
2022/08/05 09:21:50;;;;;;;1.63;0.20;;;23.20;77.60;;;;;;5055560;28;20051;-77
2022/08/05 09:24:16;;;;;;;2.08;0.20;;;23.20;76.50;;;;;;5055004;28;20131;-77
2022/08/05 09:26:47;;;;;;;1.40;0.20;;;23.30;77.00;;;;;;5055233;28;20033;-77
2022/08/05 09:29:13;;;;;;;2.05;0.30;;;23.30;76.80;;;;;;5055541;28;20017;-77
2022/08/05 09:31:42;;;;;;;3.05;0.20;;;23.50;76.10;;;;;;5054847;28;20358;-77
2022/08/05 09:34:09;;;;;;;0.88;0.30;;;23.50;72.60;;;;;;5055315;28;20104;-77
2022/08/05 09:36:39;;;;;;;2.08;0.10;;;23.50;70.60;;;;;;5055363;28;20029;-78
2022/08/05 09:39:07;;;;;;;0.80;0.10;;;23.50;70.20;;;;;;5055108;28;20028;-77
2022/08/05 09:41:33;;;;;;;0.95;0.10;;;23.70;69.90;;;;;;5055233;28;20025;-77
2022/08/05 09:43:59;;;;;;;0.80;0.15;;;23.80;68.30;;;;;;5054888;28;20493;-77
2022/08/05 09:46:28;;;;;;;2.50;0.10;;;23.80;67.50;;;;;;5054436;28;20159;-77
2022/08/05 09:48:57;;;;;;;2.03;0.10;;;24.10;66.60;;;;;;5054787;28;20540;-77
2022/08/05 09:51:36;;;;;;;1.13;0.10;;;24.30;67.00;;;;;;5054979;28;20029;-77
2022/08/05 09:54:05;;;;;;;1.27;0.13;;;24.60;66.70;;;;;;5054259;28;20018;-77
2022/08/05 09:56:32;;;;;;;1.90;0.10;;;24.90;63.90;;;;;;5055026;28;20035;-77
2022/08/05 09:59:03;;;;;;;3.08;0.10;;;25.10;63.20;;;;;;5054598;28;20017;-77
2022/08/05 10:01:35;;;;;;;1.00;0.10;;;25.10;61.20;;;;;;5054608;28;20033;-78
2022/08/05 10:04:07;;;;;;;3.70;0.10;;;25.10;61.40;;;;;;5054632;28;20098;-77
2022/08/05 10:06:33;;;;;;;2.10;0.10;;;25.10;62.00;;;;;;5054494;28;20029;-78
2022/08/05 10:09:25;;;;;;;2.50;0.10;;;24.90;61.40;;;;;;5053887;28;20433;-77
2022/08/05 10:11:51;;;;;;;1.90;0.22;;;24.70;59.10;;;;;;5053101;28;20039;-77
2022/08/05 10:14:24;;;;;;;1.77;0.10;;;24.60;59.90;;;;;;5054180;28;20028;-77
2022/08/05 10:16:51;;;;;;;1.13;0.10;;;24.60;59.90;;;;;;5054657;28;20032;-77
2022/08/05 10:19:17;;;;;;;2.22;0.30;;;24.60;59.70;;;;;;5054150;28;20036;-77
2022/08/05 10:21:48;;;;;;;1.27;0.10;;;24.70;59.90;;;;;;5054250;28;20021;-77
2022/08/05 10:24:15;;;;;;;1.90;0.10;;;24.60;60.70;;;;;;5053993;28;20045;-78
2022/08/05 10:26:43;;;;;;;1.27;0.10;;;24.60;60.00;;;;;;5054301;28;20087;-77
2022/08/05 10:29:09;;;;;;;2.30;0.20;;;24.60;58.30;;;;;;5054394;28;20032;-77
2022/08/05 10:31:37;;;;;;;1.40;0.15;;;24.60;58.70;;;;;;5054328;28;20384;-77
2022/08/05 10:34:03;;;;;;;1.73;0.10;;;24.70;58.30;;;;;;5053873;28;20025;-77
2022/08/05 10:36:29;;;;;;;1.83;0.10;;;24.70;58.30;;;;;;5053829;28;20107;-77
2022/08/05 10:39:01;;;;;;;0.82;0.00;;;24.50;58.90;;;;;;5053913;28;20064;-78
2022/08/05 10:41:34;;;;;;;2.20;0.10;;;24.60;60.20;;;;;;5054202;28;20036;-78
2022/08/05 10:44:11;;;;;;;1.35;0.10;;;24.60;59.90;;;;;;5053900;28;20045;-77
2022/08/05 10:46:50;;;;;;;5.68;0.43;;;24.80;59.30;;;;;;5054033;28;20036;-77
2022/08/05 10:49:17;;;;;;;1.08;0.10;;;25.00;57.20;;;;;;5054030;28;20024;-77
2022/08/05 10:51:56;;;;;;;1.48;0.10;;;25.10;56.60;;;;;;5054024;28;20464;-77
2022/08/05 10:54:23;;;;;;;3.03;0.10;;;25.10;57.20;;;;;;5053653;28;20049;-77
2022/08/05 10:56:56;;;;;;;2.00;0.13;;;25.20;58.70;;;;;;5053654;28;20040;-77
2022/08/05 10:59:29;;;;;;;3.88;0.10;;;25.30;56.20;;;;;;5053792;28;20025;-77
2022/08/05 11:02:12;;;;;;;1.20;0.10;;;25.30;56.30;;;;;;5053804;28;20519;-78
2022/08/05 11:04:47;;;;;;;1.42;0.08;;;25.30;55.80;;;;;;5053695;28;20037;-77
2022/08/05 11:07:17;;;;;;;0.52;0.10;;;25.40;56.50;;;;;;5052883;28;20032;-78
2022/08/05 11:09:43;;;;;;;0.63;0.10;;;25.70;56.10;;;;;;5053562;28;20078;-78
2022/08/05 11:12:39;;;;;;;1.77;0.10;;;25.80;55.30;;;;;;5053100;28;20043;-78
2022/08/05 11:15:17;;;;;;;2.30;0.03;;;26.20;54.00;;;;;;5053381;28;20025;-78
2022/08/05 11:17:48;;;;;;;9.60;1.60;;;26.30;51.30;;;;;;5053109;28;20025;-78
2022/08/05 11:20:42;;;;;;;2.08;0.28;;;26.30;49.40;;;;;;5053049;28;20479;-78
2022/08/05 11:23:42;;;;;;;1.77;0.20;;;26.20;49.10;;;;;;5052892;28;20024;-77
2022/08/05 11:26:28;;;;;;;2.05;0.10;;;26.10;47.90;;;;;;5048949;28;20056;-78
2022/08/05 11:28:55;;;;;;;2.38;0.10;;;26.00;47.50;;;;;;5053363;28;20406;-78
2022/08/05 11:31:26;;;;;;;6.28;0.10;;;25.80;47.80;;;;;;5053011;28;20083;-78
2022/08/05 11:33:57;;;;;;;1.17;0.30;;;25.60;47.30;;;;;;5053109;28;20032;-78
2022/08/05 11:36:41;;;;;;;1.30;0.10;;;25.40;47.00;;;;;;5053225;28;20045;-78
2022/08/05 11:39:07;;;;;;;1.25;0.10;;;25.20;47.60;;;;;;5052733;28;20472;-78
2022/08/05 11:41:34;;;;;;;1.95;0.03;;;25.00;47.80;;;;;;5053018;28;20071;-78
2022/08/05 11:44:06;;;;;;;2.33;0.10;;;24.90;48.30;;;;;;5052828;28;20033;-78
2022/08/05 11:46:47;;;;;;;1.52;0.15;;;24.90;47.60;;;;;;5053119;28;20082;-77
2022/08/05 11:49:15;;;;;;;1.02;0.08;;;25.00;47.70;;;;;;5053415;28;20056;-77
2022/08/05 11:51:42;;;;;;;0.95;0.10;;;25.00;48.10;;;;;;5052646;28;20029;-77
2022/08/05 11:54:13;;;;;;;1.80;0.25;;;25.10;48.30;;;;;;5052541;28;20029;-78
2022/08/05 11:56:44;;;;;;;1.13;0.10;;;25.10;48.60;;;;;;5053097;28;20028;-77
2022/08/05 11:59:21;;;;;;;3.17;0.10;;;25.30;49.60;;;;;;5053020;28;20060;-77
2022/08/05 12:01:52;;;;;;;1.30;0.20;;;25.50;49.40;;;;;;5052856;28;20431;-78
2022/08/05 12:04:18;;;;;;;1.92;0.10;;;25.50;50.00;;;;;;5052675;28;20028;-77
2022/08/05 12:06:44;;;;;;;4.53;0.10;;;25.50;49.10;;;;;;5052693;28;20128;-77
2022/08/05 12:09:10;;;;;;;2.58;0.10;;;25.40;49.50;;;;;;5052661;28;20029;-77
2022/08/05 12:11:36;;;;;;;0.82;0.00;;;25.40;48.90;;;;;;5052875;28;20025;-77
2022/08/05 12:14:04;;;;;;;4.97;0.10;;;25.40;49.20;;;;;;5052457;28;20472;-78
2022/08/05 12:16:35;;;;;;;0.63;0.10;;;25.20;48.50;;;;;;5052758;28;20033;-77
2022/08/05 12:19:02;;;;;;;1.52;0.10;;;25.10;47.80;;;;;;5056403;28;20480;-77
2022/08/05 12:21:40;;;;;;;2.17;0.10;;;25.10;47.90;;;;;;5056551;28;20476;-77
2022/08/05 12:24:08;;;;;;;1.75;0.08;;;25.10;48.20;;;;;;5056300;28;20091;-77
2022/08/05 12:26:35;;;;;;;0.50;0.00;;;25.00;47.70;;;;;;5055999;28;20404;-78
2022/08/05 12:29:02;;;;;;;0.63;0.05;;;25.00;47.10;;;;;;5056191;28;20531;-78
2022/08/05 12:31:31;;;;;;;1.00;0.10;;;25.00;46.50;;;;;;5056430;28;20025;-77
2022/08/05 12:33:57;;;;;;;1.27;0.40;;;25.00;46.70;;;;;;5056570;28;20399;-77
2022/08/05 12:36:23;;;;;;;1.60;0.30;;;25.10;45.90;;;;;;5056560;28;20021;-77
2022/08/05 12:38:49;;;;;;;1.67;0.10;;;25.10;46.80;;;;;;5056312;28;20029;-77
2022/08/05 12:41:15;;;;;;;0.55;0.00;;;25.20;47.40;;;;;;5056202;28;20368;-77
2022/08/05 12:43:56;;;;;;;0.57;0.00;;;25.20;46.60;;;;;;5056357;28;20025;-77
2022/08/05 12:46:26;;;;;;;2.47;0.10;;;25.30;45.70;;;;;;5056115;28;20029;-77
2022/08/05 12:48:59;;;;;;;1.35;0.10;;;25.30;45.90;;;;;;5056451;28;20425;-77
2022/08/05 12:51:26;;;;;;;1.05;0.05;;;25.30;46.70;;;;;;5055914;28;20025;-77
2022/08/05 12:53:58;;;;;;;2.05;0.00;;;25.50;47.50;;;;;;5056028;28;20040;-78
2022/08/05 12:56:24;;;;;;;;;;;25.60;46.90;;;;;;5056549;28;20083;-77